Relevés horaires Beauvechain (Belgique)


Relevés horaires à Beauvechain - Lundi 19 Sept. 2022
Heure UTC1 Température [°C] Vent [km/h] Hum. [%] Pres.4 [hPa] Visi. [Km] Nébu. [octa] Préc.5 [mm] Cond.
2m. Res. Ros. Dir.2 Vit. Moy. Raf.3
23:00 11.3 11.3 9.5 O 3.7 -- 7.4 89 1023.8(0.1/3h) 20 -- -- --
22:00 11.4 11.4 9.8 O 3.7 -- 7.4 90 1024(0.6/3h) 18 -- -- --
21:00 11.5 11.5 9.1 ONO 3.7 -- 13.0 85 1023.7(0.7/3h) 20 -- -- NA
20:00 11.6 11.4 9.4 NNO 5.6 7.4 13.0 86 1023.7(1.2/3h) 20 7/8 -- --
19:00 12.6 12.6 8.6 NNO 3.7 -- 9.3 77 1023.2(1.0/3h) 20 7/8 -- --
18:00 13.7 13.7 7.3 NO 3.7 -- 16.7 65 1022.8(0.6/3h) 20 5/8 -- --
17:00 14.4 14.4 7.3 NO 5.6 -- 13.0 62 1022.2(0.0/3h) 20 5/8 -- --
16:00 15.1 15.1 7.5 NO 7.4 -- 16.7 60 1022(-0.2/3h) 20 5/8 -- --
15:00 14.8 14.7 7.4 NO 7.4 -- 16.7 61 1022.1(-0.2/3h) 20 7/8 -- --
14:00 15.6 15.6 8.4 O 7.4 -- 11.1 62 1022.2(-0.3/3h) 20 7/8 -- --
13:00 14.8 14.8 8.7 NNO 1.9 -- 16.7 67 1022.2(-0.3/3h) 20 7/8 -- --
12:00 14.8 14.8 7.7 O 5.6 -- 11.1 62 1022.2(0.0/3h) 20 7/8 -- --
11:00 15.1 15.1 8.4 O 7.4 -- 11.1 64 1022.6(0.7/3h) 20 7/8 -- --
10:00 13.6 13.6 8.3 O 5.6 -- 11.1 70 1022.7(1.1/3h) 20 7/8 -- --
09:00 12.8 12.8 9.4 O 5.6 -- 9.3 80 1022.3(1.3/3h) 20 7/8 -- --
08:00 10.6 10.3 8.8 OSO 5.6 -- 9.3 89 1022(1.3/3h) 20 5/8 -- --
07:00 9.6 9.1 8.3 OSO 5.6 -- 7.4 92 1021.7(1.2/3h) 20 5/8 -- --
06:00 8.5 8.5 7.5 SO 3.7 -- 7.4 93 1021.2(0.9/3h) 20 2/8 1/12h
--
05:00 8.4 8.4 7.7 SO 3.7 -- 7.4 95 1020.7(0.5/3h) 20 8/8 -- --
04:00 8.7 8.7 7.9 NNO 1.9 -- 5.6 95 1020.5(0.5/3h) 20 -- -- --
03:00 8.3 8.3 7.8 OSO 3.7 -- 5.6 97 1020.2(0.3/3h) 19 -- -- --
02:00 8.1 8.1 7.6 OSO 3.7 -- 5.6 97 1020.2(0.2/3h) 19 -- -- --
01:00 8.5 8.5 8.1 OSO 3.7 -- 5.6 97 1020(0.5/3h) 18 -- -- --
00:00 8.6 8.6 8.5 OSO 3.7 -- 18.5 99 1020(0.8/3h) 16 -- 1/6h
NA

1 Coordinated Universal Time. Actuellement il est 19:00 locale et 18:00 UTC.

2 Le vent souffle depuis la direction indiquée vers la direction oposée.

3 Les rafales max. sont disponible 40 min après l'heure du relevé.

4 Pour les stations d'altitude (plus de 600m) le géopotentiel du niveau le plus proche de la pression obligatoire est indiqué.

5 Les stations disposant d'un diffuseur peuvent indiquer "trace". Cela signifie que des précipitations ont touchés le sol mais que la quantité est inférieure à 0.1 mm.

Récapitulatif de la journée
Température [°C] Vent [km/h] Ensoleillement4 [h] Precipitations totale5 [mm] Pression [Hpa]
Min1 Max.2 Moy.3 Max. Min Max.
7.9 16.1 7.4 18.5 0 h 0 min 0 1020.0 1024.0

1 Température minimale relevée entre 18:00 UTC la veille et 18:00 UTC le jour donné.

2 Température maximale relevée entre 06:00 UTC le jour donné et 06:00 UTC le lendemain.

3 Vent moyen de la journée basé sur les relevés horaires.

4 Ensoleillement en heures relevé entre 06:00 UTC la veille et 06:00 UTC le jour donné.

5 Précipitations totales tombées entre 06:00 UTC la jour donné et 06:00 UTC le lendemain.

Graphiques horaires